Time;durP1;ratioP1;P1;durP2;ratioP2;P2;SDS_P1;SDS_P2;PMS_P1;PMS_P2;Temp;Humidity;BMP_temperature;BMP_pressure;BME280_temperature;BME280_humidity;BME280_pressure;Samples;Min_cycle;Max_cycle;Signal;HPM_P1;HPM_P2
2023/09/17 00:01:48;;;;;;;10.87;6.63;;;14.20;99.90;;;;;;4805250;29;20286;-77
2023/09/17 00:04:15;;;;;;;12.73;7.20;;;14.20;99.90;;;;;;4805795;29;20285;-77
2023/09/17 00:06:43;;;;;;;9.67;6.47;;;14.20;99.90;;;;;;4804563;29;20241;-77
2023/09/17 00:09:11;;;;;;;10.47;6.17;;;14.20;99.90;;;;;;4805369;29;20199;-78
2023/09/17 00:11:39;;;;;;;10.50;6.30;;;14.10;99.90;;;;;;4805047;29;20195;-77
2023/09/17 00:14:10;;;;;;;9.70;6.27;;;14.10;99.90;;;;;;4805546;29;20211;-80
2023/09/17 00:16:40;;;;;;;10.13;6.47;;;14.20;99.90;;;;;;4805567;29;20187;-80
2023/09/17 00:19:08;;;;;;;10.63;6.40;;;14.10;99.90;;;;;;4805032;29;20203;-80
2023/09/17 00:21:35;;;;;;;10.57;6.87;;;14.10;99.90;;;;;;4805255;29;20215;-78
2023/09/17 00:24:03;;;;;;;11.13;6.67;;;14.10;99.90;;;;;;4805125;29;20239;-79
2023/09/17 00:26:31;;;;;;;10.33;6.60;;;14.00;99.90;;;;;;4804797;29;20318;-80
2023/09/17 00:29:00;;;;;;;10.47;6.80;;;14.00;99.90;;;;;;4804643;29;20195;-77
2023/09/17 00:31:28;;;;;;;10.73;6.57;;;14.00;99.90;;;;;;4804702;29;20633;-77
2023/09/17 00:33:56;;;;;;;11.43;6.37;;;13.90;99.90;;;;;;4805022;29;20460;-76
2023/09/17 00:36:23;;;;;;;13.53;6.90;;;13.90;99.90;;;;;;4804188;29;20291;-77
2023/09/17 00:38:51;;;;;;;13.37;7.00;;;13.90;99.90;;;;;;4804712;29;20222;-75
2023/09/17 00:41:19;;;;;;;12.20;7.40;;;13.90;99.90;;;;;;4804510;29;20538;-80
2023/09/17 00:43:46;;;;;;;11.17;6.47;;;13.80;99.90;;;;;;4805064;29;20264;-76
2023/09/17 00:46:17;;;;;;;13.83;6.70;;;13.90;99.90;;;;;;4804656;29;20238;-81
2023/09/17 00:48:45;;;;;;;9.90;6.50;;;13.90;99.90;;;;;;4804111;29;20239;-80
2023/09/17 00:51:12;;;;;;;16.17;6.83;;;13.90;99.90;;;;;;4805229;29;20278;-78
2023/09/17 00:53:40;;;;;;;15.27;6.87;;;13.80;99.90;;;;;;4804881;29;20307;-80
2023/09/17 00:56:08;;;;;;;10.60;6.37;;;13.80;99.90;;;;;;4804815;29;20202;-77
2023/09/17 00:58:38;;;;;;;10.07;6.37;;;13.80;99.90;;;;;;4804603;29;20196;-80
2023/09/17 01:01:12;;;;;;;10.43;6.57;;;13.80;99.90;;;;;;4804812;29;20300;-77
2023/09/17 01:03:44;;;;;;;10.77;6.73;;;13.70;99.90;;;;;;4804059;29;20223;-80
2023/09/17 01:06:12;;;;;;;11.03;6.93;;;13.70;99.90;;;;;;4805295;29;20231;-80
2023/09/17 01:08:40;;;;;;;10.73;6.73;;;13.70;99.90;;;;;;4804021;29;20206;-78
2023/09/17 01:11:09;;;;;;;13.47;7.43;;;13.70;99.90;;;;;;4804029;29;20207;-80
2023/09/17 01:13:49;;;;;;;10.40;6.90;;;13.50;99.90;;;;;;4804569;29;20211;-77
2023/09/17 01:16:17;;;;;;;15.40;7.37;;;13.70;99.90;;;;;;4802902;29;20238;-78
2023/09/17 01:18:47;;;;;;;11.37;6.87;;;13.60;99.90;;;;;;4803642;29;20370;-78
2023/09/17 01:21:31;;;;;;;11.00;6.50;;;13.70;99.90;;;;;;4803661;29;20343;-78
2023/09/17 01:24:05;;;;;;;10.73;6.97;;;13.60;99.90;;;;;;4803990;29;20196;-80
2023/09/17 01:26:35;;;;;;;12.47;7.50;;;13.60;99.90;;;;;;4803749;29;20630;-80
2023/09/17 01:29:05;;;;;;;13.40;8.20;;;13.60;99.90;;;;;;4804274;29;20225;-78
2023/09/17 01:31:35;;;;;;;13.67;8.53;;;13.50;99.90;;;;;;4803793;29;20195;-77
2023/09/17 01:34:03;;;;;;;12.20;7.83;;;13.50;99.90;;;;;;4803575;29;20207;-77
2023/09/17 01:36:38;;;;;;;12.33;7.70;;;13.50;99.90;;;;;;4803687;29;20218;-78
2023/09/17 01:39:25;;;;;;;14.10;7.90;;;13.50;99.90;;;;;;4804056;29;20665;-77
2023/09/17 01:41:55;;;;;;;11.90;7.53;;;13.50;99.90;;;;;;4804031;29;20238;-76
2023/09/17 01:44:24;;;;;;;13.37;8.60;;;13.50;99.90;;;;;;4804194;29;20196;-78
2023/09/17 01:46:51;;;;;;;12.83;8.00;;;13.50;99.90;;;;;;4804983;29;20687;-78
2023/09/17 01:49:19;;;;;;;16.63;8.77;;;13.40;99.90;;;;;;4804118;29;20239;-77
2023/09/17 01:51:47;;;;;;;13.30;8.10;;;13.40;99.90;;;;;;4804112;29;20764;-80
2023/09/17 01:54:15;;;;;;;14.10;8.67;;;13.40;99.90;;;;;;4804153;29;20204;-80
2023/09/17 01:56:43;;;;;;;13.80;8.60;;;13.30;99.90;;;;;;4804228;29;20200;-80
2023/09/17 01:59:12;;;;;;;15.83;9.33;;;13.30;99.90;;;;;;4804176;29;20256;-80
2023/09/17 02:01:39;;;;;;;14.73;8.63;;;13.30;99.90;;;;;;4804748;29;20203;-80
2023/09/17 02:04:07;;;;;;;16.50;8.67;;;13.40;99.90;;;;;;4803632;29;20564;-77
2023/09/17 02:06:36;;;;;;;15.87;8.77;;;13.30;99.90;;;;;;4803375;29;20242;-78
2023/09/17 02:09:08;;;;;;;16.93;8.70;;;13.20;99.90;;;;;;4803336;29;20203;-78
2023/09/17 02:11:36;;;;;;;13.50;8.37;;;13.20;99.90;;;;;;4804220;29;20199;-80
2023/09/17 02:14:04;;;;;;;15.53;8.57;;;13.20;99.90;;;;;;4803540;29;20652;-80
2023/09/17 02:16:31;;;;;;;17.30;9.30;;;13.20;99.90;;;;;;4803735;29;20196;-78
2023/09/17 02:18:59;;;;;;;16.27;9.30;;;13.20;99.90;;;;;;4803299;29;20207;-79
2023/09/17 02:21:27;;;;;;;15.33;9.53;;;13.20;99.90;;;;;;4803301;29;20215;-77
2023/09/17 02:23:55;;;;;;;16.50;9.60;;;13.20;99.90;;;;;;4803777;29;20208;-79
2023/09/17 02:26:23;;;;;;;15.83;10.03;;;13.20;99.90;;;;;;4803221;29;20211;-78
2023/09/17 02:28:50;;;;;;;14.77;9.20;;;13.20;99.90;;;;;;4803033;29;20204;-76
2023/09/17 02:31:18;;;;;;;17.40;9.60;;;13.20;99.90;;;;;;4806365;29;20216;-78
2023/09/17 02:33:47;;;;;;;17.60;9.97;;;13.20;99.90;;;;;;4806541;29;20238;-74
2023/09/17 02:36:14;;;;;;;17.97;10.50;;;13.10;99.90;;;;;;4806542;29;20683;-77
2023/09/17 02:38:42;;;;;;;14.77;9.23;;;13.20;99.90;;;;;;4805795;29;20200;-77
2023/09/17 02:41:10;;;;;;;14.10;9.40;;;13.20;99.90;;;;;;4806329;29;20601;-77
2023/09/17 02:43:38;;;;;;;16.37;9.83;;;13.20;99.90;;;;;;4806666;29;20204;-77
2023/09/17 02:46:06;;;;;;;17.43;10.67;;;13.20;99.90;;;;;;4806129;29;20695;-79
2023/09/17 02:48:34;;;;;;;16.77;10.40;;;13.20;99.90;;;;;;4806115;29;20232;-77
2023/09/17 02:51:02;;;;;;;18.63;10.23;;;13.10;99.90;;;;;;4806138;29;20216;-78
2023/09/17 02:53:30;;;;;;;17.97;10.13;;;13.10;99.90;;;;;;4806531;29;20235;-79
2023/09/17 02:55:58;;;;;;;14.60;9.20;;;13.10;99.90;;;;;;4806430;29;20257;-79
2023/09/17 02:58:26;;;;;;;15.30;9.97;;;13.10;99.90;;;;;;4806406;29;20280;-79
2023/09/17 03:00:54;;;;;;;16.73;10.00;;;13.10;99.90;;;;;;4807351;29;20203;-75
2023/09/17 03:03:22;;;;;;;15.67;9.50;;;13.10;99.90;;;;;;4806251;29;20215;-77
2023/09/17 03:05:49;;;;;;;18.23;10.50;;;13.10;99.90;;;;;;4805988;29;20637;-79
2023/09/17 03:08:17;;;;;;;17.33;10.37;;;13.00;99.90;;;;;;4806322;29;20277;-80
2023/09/17 03:10:44;;;;;;;19.53;11.10;;;13.00;99.90;;;;;;4806210;29;20648;-79
2023/09/17 03:13:14;;;;;;;20.00;11.03;;;13.10;99.90;;;;;;4805778;29;20207;-79
2023/09/17 03:15:44;;;;;;;21.57;11.60;;;13.00;99.90;;;;;;4805863;29;20294;-79
2023/09/17 03:18:11;;;;;;;19.90;10.73;;;13.00;99.90;;;;;;4806557;29;20199;-77
2023/09/17 03:20:40;;;;;;;20.17;10.70;;;13.00;99.90;;;;;;4805264;29;20234;-77
2023/09/17 03:23:07;;;;;;;16.60;10.77;;;13.00;99.90;;;;;;4789260;29;20207;-79
2023/09/17 03:25:35;;;;;;;21.40;11.47;;;12.90;99.90;;;;;;4806009;29;20211;-79
2023/09/17 03:28:03;;;;;;;20.47;11.23;;;12.80;99.90;;;;;;4805742;29;20200;-78
2023/09/17 03:30:31;;;;;;;18.80;10.87;;;12.80;99.90;;;;;;4806364;29;20199;-79
2023/09/17 03:32:58;;;;;;;18.00;11.13;;;12.90;99.90;;;;;;4805519;29;20252;-78
2023/09/17 03:35:32;;;;;;;20.50;10.77;;;12.80;99.90;;;;;;4806318;29;20646;-78
2023/09/17 03:38:00;;;;;;;17.07;10.60;;;12.90;99.90;;;;;;4805260;29;20205;-78
2023/09/17 03:40:27;;;;;;;21.40;12.00;;;12.80;99.90;;;;;;4805684;29;20281;-78
2023/09/17 03:42:55;;;;;;;17.63;10.50;;;12.80;99.90;;;;;;4804502;29;20195;-79
2023/09/17 03:45:23;;;;;;;19.00;11.13;;;12.80;99.90;;;;;;4805181;29;20195;-77
2023/09/17 03:47:50;;;;;;;17.97;10.60;;;12.80;99.90;;;;;;4805216;29;20228;-77
2023/09/17 03:50:18;;;;;;;22.77;11.10;;;12.70;99.90;;;;;;4806098;29;20675;-77
2023/09/17 03:52:51;;;;;;;17.40;11.00;;;12.70;99.90;;;;;;4805384;29;20278;-78
2023/09/17 03:55:18;;;;;;;21.57;10.77;;;12.70;99.90;;;;;;4805451;29;20261;-77
2023/09/17 03:57:46;;;;;;;18.70;11.03;;;12.70;99.90;;;;;;4805373;29;20572;-79
2023/09/17 04:00:15;;;;;;;18.60;10.40;;;12.60;99.90;;;;;;4805226;29;20203;-76
2023/09/17 04:02:44;;;;;;;18.43;11.07;;;12.60;99.90;;;;;;4805181;29;20208;-77
2023/09/17 04:05:15;;;;;;;19.57;11.20;;;12.60;99.90;;;;;;4806202;29;20302;-79
2023/09/17 04:07:44;;;;;;;17.13;10.67;;;12.60;99.90;;;;;;4804884;29;20290;-78
2023/09/17 04:10:13;;;;;;;17.17;10.43;;;12.60;99.90;;;;;;4803801;29;20712;-76
2023/09/17 04:12:42;;;;;;;18.17;11.23;;;12.60;99.90;;;;;;4805102;29;20322;-79
2023/09/17 04:15:16;;;;;;;19.03;10.77;;;12.60;99.90;;;;;;4805066;29;20211;-79
2023/09/17 04:17:44;;;;;;;18.50;10.70;;;12.60;99.90;;;;;;4804249;29;20195;-79
2023/09/17 04:20:18;;;;;;;20.73;11.70;;;12.60;99.90;;;;;;4804872;29;20203;-76
2023/09/17 04:22:49;;;;;;;18.50;11.90;;;12.60;99.90;;;;;;4804923;29;20260;-76
2023/09/17 04:25:18;;;;;;;18.03;11.27;;;12.60;99.90;;;;;;4804237;29;20604;-78
2023/09/17 04:27:47;;;;;;;19.00;11.20;;;12.60;99.90;;;;;;4804247;29;20756;-79
2023/09/17 04:30:16;;;;;;;19.23;11.30;;;12.60;99.90;;;;;;4804815;29;20651;-76
2023/09/17 04:32:45;;;;;;;18.63;10.67;;;12.70;99.90;;;;;;4805172;29;20207;-77
2023/09/17 04:35:15;;;;;;;19.43;11.30;;;12.70;99.90;;;;;;4804922;29;20715;-78
2023/09/17 04:37:44;;;;;;;19.13;11.40;;;12.70;99.90;;;;;;4804199;29;20200;-77
2023/09/17 04:40:13;;;;;;;18.80;10.67;;;12.60;99.90;;;;;;4804162;29;20199;-77
2023/09/17 04:42:48;;;;;;;19.20;11.13;;;12.70;99.90;;;;;;4805449;29;20565;-77
2023/09/17 04:45:37;;;;;;;16.17;10.20;;;12.70;99.90;;;;;;4803940;29;20203;-77
2023/09/17 04:48:04;;;;;;;18.73;10.73;;;12.70;99.90;;;;;;4803564;29;20680;-79
2023/09/17 04:50:33;;;;;;;18.17;10.60;;;12.60;99.90;;;;;;4803926;29;20231;-79
2023/09/17 04:53:02;;;;;;;18.57;10.63;;;12.70;99.90;;;;;;4803138;29;20639;-79
2023/09/17 04:55:29;;;;;;;17.93;11.00;;;12.70;99.90;;;;;;4805053;29;20644;-76
2023/09/17 04:57:57;;;;;;;17.90;11.03;;;12.80;99.90;;;;;;4803768;29;20558;-77
2023/09/17 05:00:25;;;;;;;20.00;10.70;;;12.80;99.90;;;;;;4787834;29;20213;-79
2023/09/17 05:02:53;;;;;;;18.63;11.20;;;12.80;99.90;;;;;;4803841;29;20249;-77
2023/09/17 05:05:22;;;;;;;18.70;10.93;;;12.80;99.90;;;;;;4804109;29;20295;-78
2023/09/17 05:07:53;;;;;;;17.13;11.20;;;12.90;99.90;;;;;;4803642;29;20211;-77
2023/09/17 05:10:21;;;;;;;17.93;10.90;;;12.80;99.90;;;;;;4804002;29;20256;-76
2023/09/17 05:12:49;;;;;;;17.93;10.97;;;12.90;99.90;;;;;;4803839;29;20208;-77
2023/09/17 05:15:17;;;;;;;19.93;11.43;;;13.00;99.90;;;;;;4803382;29;20231;-78
2023/09/17 05:17:45;;;;;;;18.40;10.97;;;13.10;99.90;;;;;;4803665;29;20727;-77
2023/09/17 05:20:13;;;;;;;20.73;10.90;;;13.10;99.90;;;;;;4803647;29;20192;-79
2023/09/17 05:22:41;;;;;;;29.27;12.20;;;13.10;99.90;;;;;;4804683;29;20257;-78
2023/09/17 05:25:09;;;;;;;19.23;10.40;;;13.30;99.90;;;;;;4803449;29;20214;-79
2023/09/17 05:27:37;;;;;;;18.27;10.20;;;13.20;99.90;;;;;;4803210;29;20241;-79
2023/09/17 05:30:05;;;;;;;15.57;9.53;;;13.30;99.90;;;;;;4803516;29;20210;-76
2023/09/17 05:32:33;;;;;;;21.17;11.13;;;13.40;99.90;;;;;;4803764;29;20656;-77
2023/09/17 05:35:03;;;;;;;16.57;10.60;;;13.40;99.90;;;;;;4803316;29;20258;-76
2023/09/17 05:37:31;;;;;;;19.23;11.03;;;13.50;99.90;;;;;;4803745;29;20237;-76
2023/09/17 05:39:59;;;;;;;18.87;10.97;;;13.40;99.90;;;;;;4803506;29;20663;-77
2023/09/17 05:42:27;;;;;;;19.17;10.83;;;13.50;99.90;;;;;;4804445;29;20282;-76
2023/09/17 05:44:55;;;;;;;15.70;10.43;;;13.50;99.90;;;;;;4803968;29;20202;-78
2023/09/17 05:47:22;;;;;;;18.57;10.30;;;13.60;99.90;;;;;;4803245;29;20690;-77
2023/09/17 05:49:49;;;;;;;16.13;10.20;;;13.60;99.90;;;;;;4804745;29;20599;-76
2023/09/17 05:52:16;;;;;;;17.00;10.57;;;13.70;99.90;;;;;;4803361;29;20676;-76
2023/09/17 05:54:43;;;;;;;17.03;10.53;;;13.80;99.90;;;;;;4803906;29;20196;-77
2023/09/17 05:57:11;;;;;;;15.43;9.70;;;13.80;99.90;;;;;;4804126;29;20289;-79
2023/09/17 05:59:39;;;;;;;15.03;10.33;;;14.00;99.90;;;;;;4803458;29;20455;-80
2023/09/17 06:02:11;;;;;;;15.30;10.07;;;14.00;99.90;;;;;;4803512;29;20206;-77
2023/09/17 06:04:39;;;;;;;21.03;10.10;;;14.10;99.90;;;;;;4804408;29;20574;-80
2023/09/17 06:07:07;;;;;;;17.33;9.60;;;14.10;99.90;;;;;;4807280;29;20223;-80
2023/09/17 06:09:35;;;;;;;16.07;9.77;;;14.20;99.90;;;;;;4806870;29;20191;-80
2023/09/17 06:12:03;;;;;;;15.77;9.70;;;14.40;99.90;;;;;;4807081;29;20286;-77
2023/09/17 06:14:31;;;;;;;14.97;9.70;;;14.50;99.90;;;;;;4808123;29;20199;-77
2023/09/17 06:17:00;;;;;;;13.60;9.27;;;14.60;99.90;;;;;;4807592;29;20212;-80
2023/09/17 06:19:29;;;;;;;15.10;9.07;;;14.70;99.90;;;;;;4807743;29;20622;-77
2023/09/17 06:21:56;;;;;;;15.67;9.70;;;14.70;99.90;;;;;;4807139;29;20242;-80
2023/09/17 06:24:24;;;;;;;18.60;10.40;;;14.80;99.90;;;;;;4806747;29;20279;-80
2023/09/17 06:26:55;;;;;;;13.97;9.23;;;14.80;99.90;;;;;;4806683;29;20219;-80
2023/09/17 06:29:22;;;;;;;19.90;10.07;;;14.90;99.90;;;;;;4799069;29;20685;-79
2023/09/17 06:31:50;;;;;;;15.10;9.60;;;15.00;99.90;;;;;;4806770;29;20577;-77
2023/09/17 06:34:18;;;;;;;14.93;9.67;;;15.10;99.90;;;;;;4790905;29;20220;-80
2023/09/17 06:36:46;;;;;;;15.73;9.70;;;15.20;99.90;;;;;;4807322;29;20237;-80
2023/09/17 06:39:14;;;;;;;13.10;9.33;;;15.20;99.90;;;;;;4807392;29;20679;-78
2023/09/17 06:41:42;;;;;;;14.43;9.40;;;15.30;99.90;;;;;;4807104;29;20280;-77
2023/09/17 06:44:10;;;;;;;13.87;9.23;;;15.30;99.90;;;;;;4806739;29;20294;-80
2023/09/17 06:46:38;;;;;;;14.10;9.20;;;15.50;99.90;;;;;;4806837;29;20222;-80
2023/09/17 06:49:05;;;;;;;16.03;9.53;;;15.60;99.90;;;;;;4806907;29;20240;-79
2023/09/17 06:51:32;;;;;;;12.67;8.77;;;15.70;99.90;;;;;;4806455;29;20228;-80
2023/09/17 06:54:00;;;;;;;14.30;9.57;;;15.90;99.90;;;;;;4806438;29;20640;-80
2023/09/17 06:56:29;;;;;;;15.77;9.20;;;15.90;99.90;;;;;;4806037;29;20686;-82
2023/09/17 06:58:57;;;;;;;16.30;10.00;;;16.00;99.90;;;;;;4805920;29;20224;-79
2023/09/17 07:01:24;;;;;;;14.37;9.37;;;16.00;99.90;;;;;;4806111;29;20210;-79
2023/09/17 07:03:55;;;;;;;14.20;8.97;;;16.00;99.90;;;;;;4806618;29;20236;-81
2023/09/17 07:06:23;;;;;;;14.83;9.50;;;16.10;99.90;;;;;;4806359;29;20612;-82
2023/09/17 07:08:52;;;;;;;14.03;9.27;;;16.20;99.90;;;;;;4806165;29;20231;-81
2023/09/17 07:11:25;;;;;;;14.90;9.10;;;16.40;99.90;;;;;;4805637;29;20659;-82
2023/09/17 07:13:53;;;;;;;14.43;9.10;;;16.50;99.90;;;;;;4805477;29;20257;-82
2023/09/17 07:16:26;;;;;;;13.40;8.87;;;16.60;99.90;;;;;;4806206;29;20229;-82
2023/09/17 07:18:56;;;;;;;17.47;9.40;;;16.70;99.90;;;;;;4805473;29;20195;-82
2023/09/17 07:21:24;;;;;;;17.43;9.40;;;16.80;99.90;;;;;;4798541;29;20258;-78
2023/09/17 07:24:03;;;;;;;21.20;9.40;;;16.90;99.90;;;;;;4805339;29;20209;-82
2023/09/17 07:26:37;;;;;;;15.73;9.00;;;17.00;99.90;;;;;;4805366;29;20199;-82
2023/09/17 07:29:10;;;;;;;16.17;8.80;;;17.10;99.90;;;;;;4806449;29;20264;-82
2023/09/17 07:31:39;;;;;;;13.33;8.20;;;17.20;99.90;;;;;;4805259;29;20468;-77
2023/09/17 07:34:07;;;;;;;12.70;8.33;;;17.20;99.90;;;;;;4805523;29;20208;-78
2023/09/17 07:36:42;;;;;;;14.50;8.67;;;17.30;99.90;;;;;;4805053;29;20311;-78
2023/09/17 07:39:12;;;;;;;16.43;8.70;;;17.40;99.90;;;;;;4805819;29;20226;-78
2023/09/17 07:41:46;;;;;;;14.07;9.00;;;17.40;99.90;;;;;;4806302;29;20180;-80
2023/09/17 07:44:14;;;;;;;12.23;8.30;;;17.50;99.90;;;;;;4805370;29;20196;-79
2023/09/17 07:46:42;;;;;;;12.50;8.07;;;17.60;99.90;;;;;;4805401;29;20199;-78
2023/09/17 07:49:09;;;;;;;14.30;8.77;;;17.70;99.90;;;;;;4804862;29;20654;-81
2023/09/17 07:51:39;;;;;;;18.47;9.10;;;17.80;99.90;;;;;;4806052;29;20251;-79
2023/09/17 07:54:09;;;;;;;12.53;8.47;;;17.80;99.90;;;;;;4805155;29;20203;-81
2023/09/17 07:56:39;;;;;;;13.70;8.27;;;17.90;99.90;;;;;;4803347;29;20307;-83
2023/09/17 07:59:07;;;;;;;18.43;9.40;;;17.90;99.90;;;;;;4804706;29;20223;-82
2023/09/17 08:02:01;;;;;;;15.40;8.07;;;18.10;99.90;;;;;;4805513;29;20203;-79
2023/09/17 08:04:34;;;;;;;15.93;8.50;;;18.20;99.90;;;;;;4805108;29;20195;-85
2023/09/17 08:07:09;;;;;;;19.47;9.03;;;18.30;99.90;;;;;;4806084;29;20864;-79
2023/09/17 08:09:36;;;;;;;15.07;8.10;;;18.50;99.90;;;;;;4805279;29;20211;-77
2023/09/17 08:12:05;;;;;;;16.13;8.70;;;18.60;99.90;;;;;;4805674;29;20283;-78
2023/09/17 08:14:44;;;;;;;11.90;8.07;;;18.70;99.90;;;;;;4805297;29;20224;-79
2023/09/17 08:17:13;;;;;;;16.67;8.90;;;18.70;99.90;;;;;;4788915;29;20283;-81
2023/09/17 08:19:40;;;;;;;13.53;8.10;;;19.50;99.90;;;;;;4805095;29;20212;-77
2023/09/17 08:22:11;;;;;;;13.33;8.13;;;20.30;99.90;;;;;;4805236;29;20323;-78
2023/09/17 08:24:42;;;;;;;15.47;8.33;;;21.10;99.90;;;;;;4788388;29;20575;-80
2023/09/17 08:27:18;;;;;;;10.87;7.17;;;21.70;99.90;;;;;;4804817;29;20235;-80
2023/09/17 08:29:46;;;;;;;12.40;7.90;;;22.40;99.90;;;;;;4804860;29;20283;-80
2023/09/17 08:32:18;;;;;;;14.27;7.40;;;22.80;99.90;;;;;;4805094;29;20611;-80
2023/09/17 08:34:46;;;;;;;12.80;7.33;;;23.40;99.90;;;;;;4805730;29;20204;-80
2023/09/17 08:37:22;;;;;;;11.77;7.60;;;23.70;99.90;;;;;;4805362;29;20298;-79
2023/09/17 08:39:50;;;;;;;10.80;7.27;;;23.40;99.90;;;;;;4804725;29;20227;-79
2023/09/17 08:42:21;;;;;;;11.57;7.47;;;24.00;99.90;;;;;;4805046;29;20234;-79
2023/09/17 08:44:58;;;;;;;11.75;7.28;;;24.50;99.90;;;;;;4788531;29;20195;-78
2023/09/17 08:47:26;;;;;;;22.83;10.03;;;24.90;99.90;;;;;;4803776;29;20223;-81
2023/09/17 08:49:54;;;;;;;10.80;7.72;;;25.20;99.90;;;;;;4805069;29;20207;-81
2023/09/17 08:52:25;;;;;;;10.30;6.78;;;25.30;99.90;;;;;;4805401;29;20699;-78
2023/09/17 08:55:01;;;;;;;9.95;7.57;;;25.70;99.90;;;;;;4805804;29;20233;-79
2023/09/17 08:57:35;;;;;;;19.98;8.15;;;26.00;99.90;;;;;;4788402;29;20264;-79
2023/09/17 09:00:09;;;;;;;15.98;7.85;;;26.10;99.90;;;;;;4788067;29;20203;-79
2023/09/17 09:02:51;;;;;;;10.07;7.20;;;26.50;99.90;;;;;;4805416;29;20207;-80
2023/09/17 09:05:37;;;;;;;10.05;7.20;;;26.70;99.90;;;;;;4788371;29;20223;-78
2023/09/17 09:08:08;;;;;;;9.88;7.00;;;26.50;99.90;;;;;;4805185;29;20234;-79
2023/09/17 09:10:42;;;;;;;14.63;8.10;;;26.60;99.90;;;;;;4788527;29;20207;-80
2023/09/17 09:13:13;;;;;;;13.52;7.30;;;26.90;99.90;;;;;;4803498;29;20284;-80
2023/09/17 09:15:55;;;;;;;9.85;6.75;;;27.20;99.90;;;;;;4803682;29;20199;-80
2023/09/17 09:18:30;;;;;;;10.23;7.18;;;27.70;99.90;;;;;;4804481;29;20203;-79
2023/09/17 09:20:58;;;;;;;11.77;7.60;;;27.90;99.90;;;;;;4772673;29;20234;-81
2023/09/17 09:23:26;;;;;;;11.10;6.95;;;27.70;99.90;;;;;;4803702;29;20206;-79
2023/09/17 09:25:58;;;;;;;13.48;7.45;;;27.70;99.90;;;;;;4787424;29;20234;-81
2023/09/17 09:28:32;;;;;;;13.90;7.55;;;28.20;99.90;;;;;;4788443;29;20653;-80
2023/09/17 09:31:02;;;;;;;11.70;7.18;;;28.10;99.90;;;;;;4788295;29;20235;-81
2023/09/17 09:33:31;;;;;;;9.77;7.35;;;28.40;99.90;;;;;;4804173;29;20287;-81
2023/09/17 09:36:05;;;;;;;9.55;6.72;;;28.50;99.90;;;;;;4804608;29;20598;-81
2023/09/17 09:38:50;;;;;;;8.75;6.35;;;28.70;99.90;;;;;;4787942;29;20207;-81
2023/09/17 09:41:19;;;;;;;8.88;6.72;;;28.90;99.90;;;;;;4804555;29;20199;-81
2023/09/17 09:43:48;;;;;;;9.43;7.07;;;29.20;99.90;;;;;;4804451;29;20211;-81
2023/09/17 09:46:20;;;;;;;9.32;6.70;;;29.30;99.90;;;;;;4803706;29;20191;-79
2023/09/17 09:48:50;;;;;;;9.23;6.63;;;29.40;99.90;;;;;;4803193;29;20258;-81
2023/09/17 09:51:23;;;;;;;10.15;7.00;;;29.90;99.90;;;;;;4804396;29;20335;-81
2023/09/17 09:53:55;;;;;;;8.57;6.57;;;29.90;99.90;;;;;;4804912;29;20195;-80
2023/09/17 09:56:30;;;;;;;10.50;6.38;;;30.00;99.90;;;;;;4804990;29;20184;-81
2023/09/17 09:59:13;;;;;;;8.93;6.50;;;30.10;99.90;;;;;;4798672;29;20215;-81
2023/09/17 10:01:41;;;;;;;11.02;6.47;;;30.30;99.90;;;;;;4804868;29;20196;-81
2023/09/17 10:04:12;;;;;;;7.82;5.93;;;30.60;99.90;;;;;;4788404;29;20672;-82
2023/09/17 10:06:41;;;;;;;7.95;5.93;;;30.70;99.90;;;;;;4805116;29;20227;-82
2023/09/17 10:09:10;;;;;;;10.20;6.57;;;30.60;99.90;;;;;;4788950;29;20219;-80
2023/09/17 10:11:41;;;;;;;10.23;6.60;;;30.00;99.90;;;;;;4788418;29;20219;-81
2023/09/17 10:14:12;;;;;;;9.80;6.03;;;29.60;99.90;;;;;;4803975;29;20199;-81
2023/09/17 10:16:43;;;;;;;8.50;6.07;;;29.80;99.90;;;;;;4804128;29;20176;-81
2023/09/17 10:19:18;;;;;;;7.90;6.15;;;29.90;99.90;;;;;;4788411;29;20642;-81
2023/09/17 10:21:54;;;;;;;9.60;6.30;;;30.40;99.90;;;;;;4804336;29;20247;-80
2023/09/17 10:24:22;;;;;;;8.98;6.28;;;30.40;99.90;;;;;;4804041;29;20198;-81
2023/09/17 10:26:59;;;;;;;7.32;5.65;;;31.00;99.90;;;;;;4804031;29;20297;-81
2023/09/17 10:29:43;;;;;;;13.35;6.70;;;30.90;99.90;;;;;;4803383;29;20211;-84
2023/09/17 10:32:14;;;;;;;9.30;6.05;;;31.40;99.90;;;;;;4803433;29;20648;-81
2023/09/17 10:34:45;;;;;;;8.07;5.60;;;31.20;99.90;;;;;;4788229;29;20192;-81
2023/09/17 10:38:22;;;;;;;7.65;5.93;;;31.40;99.90;;;;;;4787569;29;20227;-79
2023/09/17 10:40:58;;;;;;;8.18;5.95;;;31.30;99.90;;;;;;4750273;30;20287;-82
2023/09/17 10:43:36;;;;;;;6.70;5.45;;;31.70;99.90;;;;;;4750923;30;20208;-83
2023/09/17 10:46:11;;;;;;;23.48;6.97;;;31.70;99.90;;;;;;4751121;30;20224;-82
2023/09/17 10:48:54;;;;;;;9.48;5.88;;;32.00;99.90;;;;;;4750134;30;20268;-82
2023/09/17 10:51:30;;;;;;;10.15;6.00;;;32.20;99.90;;;;;;4759355;30;20240;-82
2023/09/17 10:54:01;;;;;;;10.15;6.80;;;32.10;99.90;;;;;;4768493;30;20654;-81
2023/09/17 10:56:45;;;;;;;8.48;5.97;;;31.60;99.50;;;;;;4768866;30;20207;-81
2023/09/17 10:59:21;;;;;;;7.82;5.72;;;31.40;99.90;;;;;;4754407;30;20213;-81
2023/09/17 11:01:51;;;;;;;8.30;5.75;;;31.70;99.90;;;;;;4768901;30;20229;-81
2023/09/17 11:04:26;;;;;;;7.85;5.80;;;32.00;99.90;;;;;;4769320;30;20291;-81
2023/09/17 11:06:56;;;;;;;8.60;5.90;;;32.50;99.10;;;;;;4769308;30;20231;-81
2023/09/17 11:09:24;;;;;;;9.60;6.50;;;32.80;98.20;;;;;;4768986;30;20224;-84
2023/09/17 11:12:04;;;;;;;6.82;5.53;;;33.30;97.60;;;;;;4754432;30;20278;-81
2023/09/17 11:14:33;;;;;;;7.53;5.97;;;33.60;96.70;;;;;;4768740;30;20213;-80
2023/09/17 11:17:04;;;;;;;8.25;6.03;;;33.40;95.70;;;;;;4780723;29;20203;-82
2023/09/17 11:19:36;;;;;;;10.93;5.68;;;33.30;95.80;;;;;;4789653;29;20596;-81
2023/09/17 11:22:05;;;;;;;8.95;5.75;;;33.40;96.00;;;;;;4805677;29;20609;-83
2023/09/17 11:24:39;;;;;;;6.28;4.88;;;33.90;95.30;;;;;;4805814;29;20205;-81
2023/09/17 11:27:20;;;;;;;8.80;5.35;;;34.40;94.20;;;;;;4805839;29;20210;-87
2023/09/17 11:30:03;;;;;;;6.03;5.10;;;35.10;93.30;;;;;;4804341;29;20210;-81
2023/09/17 11:32:32;;;;;;;5.90;5.18;;;35.60;92.20;;;;;;4806141;29;20278;-81
2023/09/17 11:35:04;;;;;;;6.53;4.93;;;36.20;90.50;;;;;;4803167;29;20245;-82
2023/09/17 11:37:36;;;;;;;8.63;5.28;;;37.10;88.00;;;;;;4805146;29;20180;-83
2023/09/17 11:40:12;;;;;;;10.90;5.90;;;36.60;84.80;;;;;;4806515;29;20300;-83
2023/09/17 11:42:40;;;;;;;7.75;5.25;;;35.30;87.60;;;;;;4775470;29;20275;-82
2023/09/17 11:45:12;;;;;;;6.68;5.07;;;35.00;87.30;;;;;;4806749;29;20284;-83
2023/09/17 11:47:40;;;;;;;7.13;5.05;;;35.20;88.40;;;;;;4790280;29;20766;-81
2023/09/17 11:50:09;;;;;;;8.18;5.10;;;35.90;85.70;;;;;;4806210;29;20223;-84
2023/09/17 11:52:38;;;;;;;7.18;4.78;;;36.00;83.80;;;;;;4805834;29;20302;-81
2023/09/17 11:55:11;;;;;;;5.03;4.53;;;36.90;82.30;;;;;;4804467;29;20192;-81
2023/09/17 11:57:39;;;;;;;6.50;4.72;;;37.20;80.90;;;;;;4806312;29;20274;-81
2023/09/17 12:00:09;;;;;;;4.95;4.45;;;37.80;79.80;;;;;;4806457;29;20619;-81
2023/09/17 12:02:37;;;;;;;5.78;4.97;;;38.60;77.20;;;;;;4805861;29;20264;-81
2023/09/17 12:05:09;;;;;;;6.03;5.07;;;37.90;76.60;;;;;;4806198;29;20223;-82
2023/09/17 12:07:49;;;;;;;6.00;5.10;;;38.10;75.50;;;;;;4805303;29;20196;-82
2023/09/17 12:10:42;;;;;;;5.82;4.40;;;38.40;73.50;;;;;;4790049;29;20207;-82
2023/09/17 12:13:19;;;;;;;7.18;4.95;;;38.50;73.90;;;;;;4788990;29;20206;-82
2023/09/17 12:15:51;;;;;;;8.27;5.15;;;38.40;71.80;;;;;;4805778;29;20740;-81
2023/09/17 12:18:50;;;;;;;6.20;4.80;;;38.50;72.00;;;;;;4784219;29;20306;-82
2023/09/17 12:21:37;;;;;;;6.30;5.07;;;38.50;70.90;;;;;;4804162;29;20227;-79
2023/09/17 12:24:08;;;;;;;6.03;4.70;;;38.20;71.30;;;;;;4804344;29;20187;-82
2023/09/17 12:27:34;;;;;;;5.95;4.68;;;37.30;72.80;;;;;;4805833;29;20196;-83
2023/09/17 12:30:08;;;;;;;5.72;4.70;;;37.60;72.20;;;;;;4732196;30;20214;-82
2023/09/17 12:32:48;;;;;;;5.18;4.68;;;38.60;70.20;;;;;;4732003;30;20312;-83
2023/09/17 12:35:18;;;;;;;6.10;4.47;;;38.50;70.20;;;;;;4731111;30;20285;-82
2023/09/17 12:37:46;;;;;;;6.18;4.32;;;38.60;69.60;;;;;;4732269;30;20610;-82
2023/09/17 12:40:14;;;;;;;9.77;5.55;;;38.80;69.30;;;;;;4732164;30;20214;-80
2023/09/17 12:42:47;;;;;;;6.65;5.10;;;38.20;69.40;;;;;;4731811;30;20235;-82
2023/09/17 12:45:19;;;;;;;5.63;4.85;;;35.70;73.60;;;;;;4731331;30;20301;-83
2023/09/17 12:47:47;;;;;;;5.85;4.80;;;36.40;73.50;;;;;;4731287;30;20737;-84
2023/09/17 12:50:19;;;;;;;9.00;5.00;;;36.40;73.30;;;;;;4717399;30;20697;-83
2023/09/17 12:52:49;;;;;;;6.10;5.07;;;36.20;73.70;;;;;;4716176;30;20291;-83
2023/09/17 12:55:19;;;;;;;11.68;5.20;;;34.70;75.00;;;;;;4730996;30;20297;-83